»·PEaware :: DAL1701 KLAX-KSFO

DAL1701 :: KLAX-KSFO

FLIGHT INFORMATION

Flight Status: Arrived
Operator:
Delta Air Lines
More flights by this operator :: More flights under this callsign
Pilot: Alfredo R. (12181)
Aircraft: BOEING 737-800
(B738)
More flights by this aircraft type
Origin: KLAX Los Angeles Intl
United States
Destination: KSFO San Francisco Intl
United States
More flights between these airports :: More routes between these airports
Route: SUMMR1 STOKD SERFR SERFR3
File this flight plan on PilotEdge
Remarks:
Altitude:
(Current/Filed)
380ft
Speed:
(Current/Filed)
245kts
Departed: 19-Aug-19 07:50 PM
Arrived: 19-Aug-19 08:43 PM
Distance/Time
Traveled:
293nm/0:53
Distance/Time
To Go:
Arrived

Flight Plot

Page will automatically refresh every two minutes.

Flight plan parsing failed; only flown route is shown


Map Options




Map Legend


Flown Route
Filed Route
Departure Airport
Arrival Airport
Navaid (VOR, NDB)
Fix

Horizontal Profiles

Position Reports

Time Latitude Longitude Heading Altitude Ground
Speed
19-Aug-19 19:15 33.946577 -118.404846 84 119ft 0kts
19-Aug-19 19:16 33.946577 -118.404846 84 119ft 0kts
19-Aug-19 19:17 33.946577 -118.404846 84 119ft 0kts
19-Aug-19 19:18 33.946577 -118.404846 84 119ft 0kts
19-Aug-19 19:19 33.946577 -118.404846 84 119ft 0kts
19-Aug-19 19:20 33.946577 -118.404846 84 119ft 0kts
19-Aug-19 19:21 33.946577 -118.404846 84 119ft 0kts
19-Aug-19 19:22 33.946577 -118.404846 84 119ft 0kts
19-Aug-19 19:23 33.946577 -118.404846 84 119ft 0kts
19-Aug-19 19:24 33.946577 -118.404846 84 119ft 0kts
19-Aug-19 19:25 33.946577 -118.404846 84 119ft 0kts
19-Aug-19 19:26 33.946577 -118.404846 84 119ft 0kts
19-Aug-19 19:27 33.946577 -118.404846 84 119ft 0kts
19-Aug-19 19:28 33.946577 -118.404846 84 119ft 0kts
19-Aug-19 19:29 33.946577 -118.404846 84 119ft 0kts
19-Aug-19 19:30 33.946577 -118.404846 84 119ft 0kts
19-Aug-19 19:31 33.946577 -118.404846 84 119ft 0kts
19-Aug-19 19:32 33.946577 -118.404846 84 119ft 0kts
19-Aug-19 19:33 33.946577 -118.404846 84 119ft 0kts
19-Aug-19 19:34 33.946577 -118.404846 84 119ft 0kts
19-Aug-19 19:35 33.946577 -118.404846 84 119ft 0kts
19-Aug-19 19:36 33.946577 -118.404846 84 119ft 0kts
19-Aug-19 19:37 33.946535 -118.405347 84 119ft 2kts
19-Aug-19 19:38 33.946078 -118.405641 354 119ft 1kts
19-Aug-19 19:39 33.947425 -118.405843 353 119ft 0kts
19-Aug-19 19:40 33.947425 -118.405843 353 119ft 0kts
19-Aug-19 19:41 33.947425 -118.405843 353 119ft 0kts
19-Aug-19 19:42 33.947425 -118.405843 353 119ft 0kts
19-Aug-19 19:43 33.947431 -118.405844 353 119ft 0kts
19-Aug-19 19:44 33.948326 -118.405957 6 119ft 6kts
19-Aug-19 19:45 33.948961 -118.402918 83 117ft 15kts
19-Aug-19 19:46 33.949231 -118.401821 32 116ft 0kts
19-Aug-19 19:47 33.949231 -118.401821 32 116ft 0kts
19-Aug-19 19:48 33.950092 -118.402135 283 116ft 8kts
19-Aug-19 19:49 33.948217 -118.420775 262 120ft 147kts
19-Aug-19 19:50 33.944446 -118.478821 266 1758ft 197kts
19-Aug-19 19:51 33.939155 -118.559729 264 4064ft 257kts
19-Aug-19 19:52 33.931748 -118.651453 263 7221ft 275kts
19-Aug-19 19:53 33.924115 -118.747880 263 10303ft 294kts
19-Aug-19 19:54 33.917484 -118.858853 270 12529ft 330kts
19-Aug-19 19:55 33.920839 -118.972715 271 15936ft 337kts
19-Aug-19 19:56 33.955935 -119.083328 300 18828ft 359kts
19-Aug-19 19:57 34.015952 -119.190133 313 21540ft 380kts
19-Aug-19 19:58 34.107493 -119.270807 321 22983ft 394kts
19-Aug-19 19:59 34.199955 -119.350227 321 22977ft 392kts
19-Aug-19 20:00 34.291856 -119.429520 321 23348ft 398kts
19-Aug-19 20:01 34.385236 -119.510354 321 25767ft 408kts
19-Aug-19 20:02 34.471214 -119.605100 310 27823ft 416kts
19-Aug-19 20:03 34.553323 -119.706524 309 29707ft 427kts
19-Aug-19 20:04 34.638057 -119.811383 309 31523ft 436kts
19-Aug-19 20:05 34.722514 -119.916050 309 33757ft 428kts
19-Aug-19 20:06 34.805227 -120.018873 308 35581ft 422kts
19-Aug-19 20:07 34.886547 -120.120267 308 37067ft 417kts
19-Aug-19 20:08 34.967104 -120.221026 308 38042ft 417kts
19-Aug-19 20:09 35.049716 -120.324786 308 38055ft 432kts
19-Aug-19 20:10 35.135782 -120.427379 311 38040ft 434kts
19-Aug-19 20:11 35.224704 -120.526813 311 38039ft 434kts
19-Aug-19 20:12 35.313822 -120.626913 311 38039ft 436kts
19-Aug-19 20:13 35.402663 -120.727064 311 38047ft 435kts
19-Aug-19 20:14 35.491807 -120.827076 314 38020ft 438kts
19-Aug-19 20:15 35.589801 -120.917678 316 38019ft 440kts
19-Aug-19 20:16 35.688440 -121.009064 316 38019ft 440kts
19-Aug-19 20:17 35.785528 -121.099473 316 37122ft 431kts
19-Aug-19 20:18 35.879247 -121.187019 316 35123ft 420kts
19-Aug-19 20:19 35.973621 -121.275659 317 33141ft 428kts
19-Aug-19 20:20 36.068929 -121.365333 318 30977ft 433kts
19-Aug-19 20:21 36.171877 -121.446282 323 28756ft 441kts
19-Aug-19 20:22 36.273566 -121.525368 324 26529ft 426kts
19-Aug-19 20:23 36.372187 -121.602584 324 24375ft 413kts
19-Aug-19 20:24 36.468249 -121.678078 323 22551ft 401kts
19-Aug-19 20:25 36.560980 -121.751199 324 20758ft 391kts
19-Aug-19 20:26 36.651464 -121.822799 324 18963ft 381kts
19-Aug-19 20:27 36.740563 -121.891096 334 17167ft 374kts
19-Aug-19 20:28 36.840253 -121.922403 346 15392ft 368kts
19-Aug-19 20:29 36.933784 -121.948319 347 13687ft 358kts
19-Aug-19 20:30 37.018550 -121.978470 342 12261ft 350kts
19-Aug-19 20:31 37.099732 -122.010218 341 10903ft 329kts
19-Aug-19 20:32 37.184287 -122.043346 341 9391ft 311kts
19-Aug-19 20:33 37.261855 -122.073782 341 8118ft 283kts
19-Aug-19 20:34 37.335200 -122.102684 341 6847ft 274kts
19-Aug-19 20:35 37.406820 -122.129702 343 5442ft 263kts
19-Aug-19 20:36 37.473543 -122.152572 343 4315ft 233kts
19-Aug-19 20:37 37.529770 -122.180047 310 3300ft 206kts
19-Aug-19 20:38 37.560259 -122.236075 296 2211ft 178kts
19-Aug-19 20:39 37.580775 -122.284776 295 1353ft 141kts
19-Aug-19 20:40 37.599043 -122.328231 296 593ft 138kts
19-Aug-19 20:41 37.616814 -122.370569 296 12ft 118kts
19-Aug-19 20:42 37.622740 -122.385399 247 28ft 18kts
19-Aug-19 20:43 37.621260 -122.385817 121 30ft 10kts
19-Aug-19 20:44 37.619194 -122.380876 118 30ft 18kts
19-Aug-19 20:45 37.615442 -122.380910 284 30ft 9kts
19-Aug-19 20:47 37.615555 -122.382623 225 30ft 1kts
19-Aug-19 20:48 37.615530 -122.382655 225 30ft 0kts
19-Aug-19 20:49 37.615530 -122.382655 225 30ft 0kts
19-Aug-19 20:50 37.615530 -122.382654 225 30ft 0kts
19-Aug-19 20:51 37.615530 -122.382654 225 30ft 0kts
19-Aug-19 20:52 37.615530 -122.382654 225 30ft 0kts

Navigation Log

Ident Type
Flight plan parsing failed, navigation log unavailable